createdAt,value
2022-12-27T00:01:10.135Z,100.00
2022-12-27T00:03:36.634Z,100.00
2022-12-27T00:06:06.801Z,100.00
2022-12-27T00:08:33.369Z,100.00
2022-12-27T00:11:04.571Z,100.00
2022-12-27T00:13:32.011Z,100.00
2022-12-27T00:16:02.876Z,100.00
2022-12-27T00:18:29.405Z,100.00
2022-12-27T00:20:59.944Z,100.00
2022-12-27T00:23:26.893Z,100.00
2022-12-27T00:25:59.864Z,100.00
2022-12-27T00:28:26.391Z,100.00
2022-12-27T00:30:56.223Z,100.00
2022-12-27T00:33:22.743Z,100.00
2022-12-27T00:35:49.316Z,100.00
2022-12-27T00:38:15.853Z,100.00
2022-12-27T00:40:42.583Z,100.00
2022-12-27T00:43:09.090Z,100.00
2022-12-27T00:45:35.688Z,100.00
2022-12-27T00:48:02.243Z,100.00
2022-12-27T00:50:28.872Z,100.00
2022-12-27T00:52:55.462Z,100.00
2022-12-27T00:55:21.998Z,100.00
2022-12-27T00:57:48.611Z,100.00
2022-12-27T01:00:15.520Z,100.00
2022-12-27T01:02:42.051Z,100.00
2022-12-27T01:05:08.860Z,100.00
2022-12-27T01:07:35.376Z,100.00
2022-12-27T01:10:01.940Z,100.00
2022-12-27T01:12:28.496Z,100.00
2022-12-27T01:14:55.067Z,100.00
2022-12-27T01:17:21.570Z,100.00
2022-12-27T01:19:48.073Z,100.00
2022-12-27T01:22:14.638Z,100.00
2022-12-27T01:24:41.211Z,100.00
2022-12-27T01:27:07.757Z,100.00
2022-12-27T01:29:34.374Z,100.00
2022-12-27T01:32:00.992Z,100.00
2022-12-27T01:34:27.577Z,100.00
2022-12-27T01:36:54.142Z,100.00
2022-12-27T01:39:20.670Z,100.00
2022-12-27T01:42:05.843Z,100.00
2022-12-27T01:44:43.871Z,100.00
2022-12-27T01:47:24.938Z,100.00
2022-12-27T01:49:51.469Z,100.00
2022-12-27T01:52:18.136Z,100.00
2022-12-27T01:54:44.818Z,100.00
2022-12-27T01:57:11.449Z,100.00
2022-12-27T01:59:38.018Z,100.00
2022-12-27T02:02:05.379Z,100.00
2022-12-27T02:04:32.253Z,100.00
2022-12-27T02:06:59.730Z,100.00
2022-12-27T02:09:49.011Z,100.00
2022-12-27T02:12:16.176Z,100.00
2022-12-27T02:14:44.659Z,100.00
2022-12-27T02:17:19.288Z,100.00
2022-12-27T02:19:48.629Z,100.00
2022-12-27T02:22:18.238Z,100.00
2022-12-27T02:24:55.265Z,100.00
2022-12-27T02:27:24.856Z,100.00
2022-12-27T02:30:10.272Z,100.00
2022-12-27T02:32:38.871Z,100.00
2022-12-27T02:35:34.979Z,100.00
2022-12-27T02:38:05.070Z,100.00
2022-12-27T02:40:51.481Z,100.00
2022-12-27T02:43:36.709Z,100.00
2022-12-27T02:46:22.241Z,100.00
2022-12-27T02:49:11.215Z,100.00
2022-12-27T02:52:02.304Z,100.00
2022-12-27T02:54:42.359Z,100.00
2022-12-27T02:57:27.402Z,100.00
2022-12-27T03:00:24.788Z,100.00
2022-12-27T03:03:15.809Z,100.00
2022-12-27T03:06:11.309Z,100.00
2022-12-27T03:08:46.574Z,100.00
2022-12-27T03:11:31.408Z,100.00
2022-12-27T03:14:37.006Z,100.00
2022-12-27T03:17:09.633Z,100.00
2022-12-27T03:20:01.908Z,100.00
2022-12-27T03:22:48.732Z,100.00
2022-12-27T03:25:29.277Z,100.00
2022-12-27T03:28:26.213Z,100.00
2022-12-27T03:31:16.024Z,100.00
2022-12-27T03:33:43.139Z,100.00
2022-12-27T03:36:34.370Z,100.00
2022-12-27T03:39:16.713Z,100.00
2022-12-27T03:42:06.318Z,100.00
2022-12-27T03:44:33.276Z,100.00
2022-12-27T03:47:03.193Z,100.00
2022-12-27T03:49:36.305Z,100.00
2022-12-27T03:52:02.830Z,100.00
2022-12-27T03:54:37.985Z,100.00
2022-12-27T03:57:06.634Z,100.00
2022-12-27T03:59:33.232Z,100.00
2022-12-27T04:02:00.086Z,100.00
2022-12-27T04:04:26.858Z,100.00
2022-12-27T04:06:53.474Z,100.00
2022-12-27T04:09:38.691Z,100.00
2022-12-27T04:12:23.902Z,100.00
2022-12-27T04:15:08.860Z,100.00
2022-12-27T04:17:53.720Z,100.00
2022-12-27T04:20:39.244Z,100.00
2022-12-27T04:23:24.162Z,100.00
2022-12-27T04:26:09.740Z,100.00
2022-12-27T04:28:54.554Z,100.00
2022-12-27T04:31:40.022Z,100.00
2022-12-27T04:34:24.875Z,100.00
2022-12-27T04:36:51.493Z,100.00
2022-12-27T04:39:18.026Z,100.00
2022-12-27T04:42:03.307Z,100.00
2022-12-27T04:44:48.528Z,100.00
2022-12-27T04:47:34.981Z,100.00
2022-12-27T04:50:20.517Z,100.00
2022-12-27T04:53:05.885Z,100.00
2022-12-27T04:55:32.393Z,100.00
2022-12-27T04:57:59.313Z,100.00
2022-12-27T05:00:45.524Z,100.00
2022-12-27T05:03:23.192Z,100.00
2022-12-27T05:05:51.299Z,100.00
2022-12-27T05:08:37.738Z,100.00
2022-12-27T05:11:22.591Z,100.00
2022-12-27T05:14:01.042Z,100.00
2022-12-27T05:16:32.366Z,100.00
2022-12-27T05:18:59.009Z,100.00
2022-12-27T05:21:25.735Z,100.00
2022-12-27T05:24:11.415Z,100.00
2022-12-27T05:26:38.754Z,100.00
2022-12-27T05:29:06.091Z,100.00
2022-12-27T05:31:32.815Z,100.00
2022-12-27T05:33:59.380Z,100.00
2022-12-27T05:36:27.094Z,100.00
2022-12-27T05:38:53.740Z,100.00
2022-12-27T05:41:20.470Z,100.00
2022-12-27T05:43:47.064Z,100.00
2022-12-27T05:46:14.890Z,100.00
2022-12-27T05:48:41.761Z,100.00
2022-12-27T05:51:20.698Z,100.00
2022-12-27T05:53:47.665Z,100.00
2022-12-27T05:56:18.951Z,100.00
2022-12-27T05:58:45.572Z,100.00
2022-12-27T06:01:14.540Z,100.00
2022-12-27T06:03:41.168Z,100.00
2022-12-27T06:06:08.580Z,100.00
2022-12-27T06:08:35.183Z,100.00
2022-12-27T06:11:09.902Z,100.00
2022-12-27T06:13:36.944Z,100.00
2022-12-27T06:16:04.556Z,100.00
2022-12-27T06:18:32.672Z,100.00
2022-12-27T06:21:03.169Z,100.00
2022-12-27T06:23:29.726Z,100.00
2022-12-27T06:25:56.344Z,100.00
2022-12-27T06:28:22.894Z,100.00
2022-12-27T06:30:49.515Z,100.00
2022-12-27T06:33:16.613Z,100.00
2022-12-27T06:35:43.136Z,100.00
2022-12-27T06:38:09.758Z,100.00
2022-12-27T06:40:36.291Z,100.00
2022-12-27T06:43:02.780Z,100.00
2022-12-27T06:45:29.377Z,100.00
2022-12-27T06:47:55.921Z,100.00
2022-12-27T06:50:22.535Z,100.00
2022-12-27T06:52:49.057Z,100.00
2022-12-27T06:55:15.682Z,100.00
2022-12-27T06:57:42.207Z,100.00
2022-12-27T07:00:08.957Z,100.00
2022-12-27T07:02:35.599Z,100.00
2022-12-27T07:05:02.263Z,100.00
2022-12-27T07:07:28.813Z,100.00
2022-12-27T07:09:55.310Z,100.00
2022-12-27T07:12:21.825Z,100.00
2022-12-27T07:14:48.381Z,100.00
2022-12-27T07:17:14.901Z,100.00
2022-12-27T07:19:41.414Z,100.00
2022-12-27T07:22:07.938Z,100.00
2022-12-27T07:24:35.270Z,100.00
2022-12-27T07:27:05.311Z,100.00
2022-12-27T07:29:31.875Z,100.00
2022-12-27T07:31:58.454Z,100.00
2022-12-27T07:34:26.170Z,100.00
2022-12-27T07:36:52.730Z,100.00
2022-12-27T07:39:19.239Z,100.00
2022-12-27T07:41:45.878Z,100.00
2022-12-27T07:44:12.387Z,100.00
2022-12-27T07:46:40.066Z,100.00
2022-12-27T07:49:09.958Z,100.00
2022-12-27T07:51:40.378Z,100.00
2022-12-27T07:54:06.952Z,100.00
2022-12-27T07:56:33.492Z,100.00
2022-12-27T07:59:01.003Z,100.00
2022-12-27T08:01:28.863Z,100.00
2022-12-27T08:03:55.883Z,100.00
2022-12-27T08:06:23.949Z,100.00
2022-12-27T08:08:51.540Z,100.00
2022-12-27T08:11:18.185Z,100.00
2022-12-27T08:13:44.735Z,100.00
2022-12-27T08:16:22.315Z,100.00
2022-12-27T08:18:48.867Z,100.00
2022-12-27T08:21:15.846Z,100.00
2022-12-27T08:23:42.713Z,100.00
2022-12-27T08:26:09.323Z,100.00
2022-12-27T08:28:36.231Z,100.00
2022-12-27T08:31:05.520Z,100.00
2022-12-27T08:33:32.075Z,99.49
2022-12-27T08:35:58.753Z,99.94
2022-12-27T08:38:25.293Z,96.97
2022-12-27T08:40:51.871Z,93.95
2022-12-27T08:43:18.548Z,93.92
2022-12-27T08:45:45.154Z,93.48
2022-12-27T08:48:11.837Z,95.31
2022-12-27T08:50:38.481Z,96.07
2022-12-27T08:53:06.159Z,93.81
2022-12-27T08:55:33.374Z,93.38
2022-12-27T08:58:01.286Z,90.88
2022-12-27T09:00:28.420Z,91.38
2022-12-27T09:02:55.230Z,92.04
2022-12-27T09:05:24.016Z,90.41
2022-12-27T09:07:50.941Z,90.15
2022-12-27T09:10:17.943Z,88.44
2022-12-27T09:12:45.983Z,86.90
2022-12-27T09:15:12.901Z,87.77
2022-12-27T09:17:39.624Z,84.90
2022-12-27T09:20:06.483Z,82.14
2022-12-27T09:22:33.018Z,83.76
2022-12-27T09:24:59.637Z,81.61
2022-12-27T09:27:26.270Z,80.77
2022-12-27T09:29:52.826Z,79.83
2022-12-27T09:32:19.367Z,78.99
2022-12-27T09:34:46.108Z,75.96
2022-12-27T09:37:12.739Z,75.82
2022-12-27T09:39:39.327Z,75.08
2022-12-27T09:42:47.668Z,73.67
2022-12-27T09:45:04.528Z,72.22
2022-12-27T09:47:43.328Z,71.75
2022-12-27T09:50:19.338Z,75.88
2022-12-27T09:52:57.052Z,68.72
2022-12-27T09:55:30.015Z,70.01
2022-12-27T09:58:04.583Z,66.39
2022-12-27T10:00:35.299Z,70.20
2022-12-27T10:03:04.952Z,67.49
2022-12-27T10:05:33.830Z,67.64
2022-12-27T10:08:18.933Z,65.54
2022-12-27T10:11:03.981Z,66.92
2022-12-27T10:13:33.416Z,63.90
2022-12-27T10:16:18.339Z,67.28
2022-12-27T10:18:58.303Z,61.18
2022-12-27T10:21:26.257Z,59.18
2022-12-27T10:23:55.713Z,68.49
2022-12-27T10:26:22.598Z,61.43
2022-12-27T10:28:57.321Z,68.63
2022-12-27T10:31:25.140Z,70.40
2022-12-27T10:33:52.252Z,62.39
2022-12-27T10:36:29.413Z,66.44
2022-12-27T10:38:56.899Z,59.94
2022-12-27T10:41:36.364Z,70.70
2022-12-27T10:44:03.297Z,63.97
2022-12-27T10:46:33.318Z,73.94
2022-12-27T10:49:22.593Z,76.25
2022-12-27T10:51:50.068Z,64.78
2022-12-27T10:54:20.790Z,60.04
2022-12-27T10:56:47.702Z,56.93
2022-12-27T10:59:15.171Z,54.96
2022-12-27T11:01:42.038Z,52.86
2022-12-27T11:04:09.581Z,52.91
2022-12-27T11:06:38.858Z,55.77
2022-12-27T11:09:26.802Z,52.76
2022-12-27T11:12:16.202Z,52.30
2022-12-27T11:15:01.611Z,56.54
2022-12-27T11:17:33.059Z,51.10
2022-12-27T11:20:19.127Z,56.29
2022-12-27T11:22:50.991Z,51.71
2022-12-27T11:25:17.617Z,51.10
2022-12-27T11:27:46.821Z,48.85
2022-12-27T11:30:45.972Z,48.33
2022-12-27T11:33:19.614Z,51.14
2022-12-27T11:35:50.795Z,52.88
2022-12-27T11:38:25.256Z,55.78
2022-12-27T11:41:01.383Z,49.41
2022-12-27T11:43:30.629Z,55.44
2022-12-27T11:45:57.934Z,51.73
2022-12-27T11:48:29.293Z,53.46
2022-12-27T11:51:12.863Z,49.36
2022-12-27T11:53:42.215Z,47.35
2022-12-27T11:56:29.546Z,46.43
2022-12-27T11:58:56.093Z,46.26
2022-12-27T12:01:49.115Z,47.57
2022-12-27T12:04:35.851Z,47.35
2022-12-27T12:07:11.829Z,45.07
2022-12-27T12:09:47.291Z,43.81
2022-12-27T12:12:19.690Z,46.47
2022-12-27T12:14:46.261Z,48.02
2022-12-27T12:17:41.191Z,48.09
2022-12-27T12:20:08.097Z,44.45
2022-12-27T12:22:34.623Z,42.69
2022-12-27T12:25:19.957Z,43.88
2022-12-27T12:27:58.591Z,44.88
2022-12-27T12:30:27.459Z,45.57
2022-12-27T12:33:01.339Z,44.96
2022-12-27T12:35:44.134Z,43.75
2022-12-27T12:38:12.891Z,51.43
2022-12-27T12:40:39.421Z,42.93
2022-12-27T12:43:21.864Z,43.89
2022-12-27T12:46:00.457Z,46.75
2022-12-27T12:48:41.776Z,49.28
2022-12-27T12:51:24.971Z,48.27
2022-12-27T12:54:02.712Z,46.00
2022-12-27T12:56:43.398Z,45.60
2022-12-27T12:59:28.536Z,49.16
2022-12-27T13:02:18.227Z,51.03
2022-12-27T13:04:44.933Z,44.45
2022-12-27T13:07:21.812Z,47.07
2022-12-27T13:10:00.408Z,48.25
2022-12-27T13:12:52.874Z,43.53
2022-12-27T13:15:28.856Z,50.31
2022-12-27T13:18:01.392Z,46.93
2022-12-27T13:20:33.893Z,52.46
2022-12-27T13:23:09.264Z,49.93
2022-12-27T13:25:50.262Z,49.90
2022-12-27T13:28:49.332Z,55.24
2022-12-27T13:31:34.610Z,55.80
2022-12-27T13:34:19.953Z,51.11
2022-12-27T13:37:09.651Z,60.89
2022-12-27T13:39:41.831Z,57.72
2022-12-27T13:42:37.456Z,55.72
2022-12-27T13:45:18.744Z,59.33
2022-12-27T13:47:57.682Z,59.43
2022-12-27T13:50:39.418Z,54.18
2022-12-27T13:53:05.985Z,60.08
2022-12-27T13:55:38.005Z,61.70
2022-12-27T13:58:16.461Z,64.11
2022-12-27T14:01:01.772Z,68.09
2022-12-27T14:03:46.595Z,67.69
2022-12-27T14:06:31.943Z,72.55
2022-12-27T14:09:07.594Z,63.70
2022-12-27T14:11:44.305Z,65.79
2022-12-27T14:14:12.705Z,60.63
2022-12-27T14:17:11.570Z,63.31
2022-12-27T14:19:38.201Z,64.89
2022-12-27T14:22:07.534Z,67.88
2022-12-27T14:24:54.382Z,71.05
2022-12-27T14:27:32.946Z,70.50
2022-12-27T14:30:02.585Z,68.16
2022-12-27T14:32:47.651Z,69.99
2022-12-27T14:35:33.493Z,72.00
2022-12-27T14:38:23.103Z,73.00
2022-12-27T14:40:58.897Z,73.28
2022-12-27T14:43:25.475Z,64.07
2022-12-27T14:45:58.260Z,66.99
2022-12-27T14:48:28.859Z,68.06
2022-12-27T14:51:01.427Z,62.80
2022-12-27T14:53:27.993Z,67.19
2022-12-27T14:56:00.743Z,70.58
2022-12-27T14:58:27.307Z,69.91
2022-12-27T15:00:53.889Z,70.82
2022-12-27T15:03:41.364Z,73.30
2022-12-27T15:06:14.333Z,74.88
2022-12-27T15:08:49.823Z,74.27
2022-12-27T15:11:19.378Z,77.82
2022-12-27T15:13:54.873Z,78.35
2022-12-27T15:16:34.358Z,78.45
2022-12-27T15:19:10.089Z,68.61
2022-12-27T15:21:41.445Z,74.85
2022-12-27T15:24:11.528Z,74.96
2022-12-27T15:26:51.483Z,76.54
2022-12-27T15:29:21.101Z,74.84
2022-12-27T15:31:57.347Z,73.29
2022-12-27T15:34:40.028Z,77.83
2022-12-27T15:37:07.088Z,79.29
2022-12-27T15:39:33.613Z,79.48
2022-12-27T15:42:36.314Z,79.31
2022-12-27T15:45:22.877Z,82.26
2022-12-27T15:48:08.016Z,84.06
2022-12-27T15:50:34.503Z,85.26
2022-12-27T15:53:07.385Z,85.17
2022-12-27T15:55:52.504Z,75.30
2022-12-27T15:58:19.054Z,79.50
2022-12-27T16:00:46.453Z,83.63
2022-12-27T16:03:28.326Z,82.42
2022-12-27T16:05:55.211Z,83.62
2022-12-27T16:08:26.672Z,84.61
2022-12-27T16:10:54.048Z,82.58
2022-12-27T16:13:20.818Z,81.62
2022-12-27T16:15:52.213Z,84.28
2022-12-27T16:18:18.955Z,84.64
2022-12-27T16:21:02.733Z,87.34
2022-12-27T16:24:01.923Z,90.76
2022-12-27T16:26:30.336Z,88.31
2022-12-27T16:29:01.893Z,88.20
2022-12-27T16:31:29.931Z,89.84
2022-12-27T16:33:58.111Z,89.13
2022-12-27T16:36:27.658Z,88.67
2022-12-27T16:39:12.305Z,88.00
2022-12-27T16:41:54.260Z,89.70
2022-12-27T16:44:24.054Z,87.67
2022-12-27T16:46:56.760Z,86.65
2022-12-27T16:49:26.368Z,85.86
2022-12-27T16:52:07.226Z,87.02
2022-12-27T16:54:36.906Z,87.75
2022-12-27T16:57:36.012Z,89.89
2022-12-27T17:00:05.680Z,88.09
2022-12-27T17:02:32.578Z,90.51
2022-12-27T17:05:01.025Z,91.55
2022-12-27T17:07:47.013Z,92.60
2022-12-27T17:10:25.789Z,94.96
2022-12-27T17:12:54.017Z,94.25
2022-12-27T17:15:21.144Z,94.16
2022-12-27T17:17:50.669Z,93.73
2022-12-27T17:20:18.468Z,95.04
2022-12-27T17:22:45.215Z,95.11
2022-12-27T17:25:16.185Z,95.93
2022-12-27T17:27:51.469Z,96.68
2022-12-27T17:30:21.802Z,96.84
2022-12-27T17:32:54.262Z,98.13
2022-12-27T17:35:34.744Z,98.25
2022-12-27T17:38:01.273Z,97.83
2022-12-27T17:40:27.808Z,98.00
2022-12-27T17:43:19.593Z,98.94
2022-12-27T17:45:49.102Z,99.98
2022-12-27T17:48:15.699Z,100.00
2022-12-27T17:50:44.434Z,100.00
2022-12-27T17:53:29.586Z,99.97
2022-12-27T17:56:19.313Z,100.00
2022-12-27T17:58:46.200Z,100.00
2022-12-27T18:01:13.239Z,100.00
2022-12-27T18:03:42.994Z,100.00
2022-12-27T18:06:09.735Z,100.00
2022-12-27T18:08:37.039Z,100.00
2022-12-27T18:11:05.357Z,100.00
2022-12-27T18:13:33.652Z,100.00
2022-12-27T18:16:04.546Z,100.00
2022-12-27T18:18:33.302Z,100.00
2022-12-27T18:21:04.721Z,100.00
2022-12-27T18:23:40.774Z,100.00
2022-12-27T18:26:13.411Z,100.00
2022-12-27T18:28:40.978Z,100.00
2022-12-27T18:31:26.400Z,100.00
2022-12-27T18:33:58.110Z,100.00
2022-12-27T18:36:29.357Z,100.00
2022-12-27T18:38:58.619Z,100.00
2022-12-27T18:41:26.019Z,100.00
2022-12-27T18:43:57.834Z,100.00
2022-12-27T18:46:32.476Z,100.00
2022-12-27T18:48:59.705Z,100.00
2022-12-27T18:51:37.140Z,100.00
2022-12-27T18:54:21.068Z,100.00
2022-12-27T18:56:50.572Z,100.00
2022-12-27T18:59:28.884Z,100.00
2022-12-27T19:02:02.893Z,100.00
2022-12-27T19:04:30.981Z,100.00
2022-12-27T19:07:09.236Z,100.00
2022-12-27T19:09:42.935Z,100.00
2022-12-27T19:12:21.410Z,100.00
2022-12-27T19:14:48.057Z,100.00
2022-12-27T19:17:22.897Z,100.00
2022-12-27T19:19:51.481Z,100.00
2022-12-27T19:22:33.788Z,100.00
2022-12-27T19:25:01.793Z,100.00
2022-12-27T19:27:28.415Z,100.00
2022-12-27T19:29:54.973Z,100.00
2022-12-27T19:32:23.070Z,100.00
2022-12-27T19:34:51.700Z,100.00
2022-12-27T19:37:19.222Z,100.00
2022-12-27T19:39:46.898Z,100.00
2022-12-27T19:42:21.611Z,100.00
2022-12-27T19:44:48.858Z,100.00
2022-12-27T19:47:15.826Z,100.00
2022-12-27T19:49:44.232Z,100.00
2022-12-27T19:52:15.788Z,100.00
2022-12-27T19:54:42.715Z,100.00
2022-12-27T19:57:11.777Z,100.00
2022-12-27T19:59:38.819Z,100.00
2022-12-27T20:02:05.748Z,100.00
2022-12-27T20:04:32.987Z,100.00
2022-12-27T20:07:00.237Z,100.00
2022-12-27T20:09:26.828Z,100.00
2022-12-27T20:11:53.418Z,100.00
2022-12-27T20:14:20.024Z,100.00
2022-12-27T20:16:47.222Z,100.00
2022-12-27T20:19:16.425Z,100.00
2022-12-27T20:21:43.046Z,100.00
2022-12-27T20:24:12.978Z,100.00
2022-12-27T20:26:39.661Z,100.00
2022-12-27T20:29:06.256Z,100.00
2022-12-27T20:31:33.044Z,100.00
2022-12-27T20:33:59.657Z,100.00
2022-12-27T20:36:26.303Z,100.00
2022-12-27T20:38:52.975Z,100.00
2022-12-27T20:41:20.461Z,100.00
2022-12-27T20:43:47.263Z,100.00
2022-12-27T20:46:15.271Z,100.00
2022-12-27T20:48:43.087Z,100.00
2022-12-27T20:51:11.235Z,100.00
2022-12-27T20:53:37.826Z,100.00
2022-12-27T20:56:05.143Z,100.00
2022-12-27T20:58:32.574Z,100.00
2022-12-27T21:01:05.823Z,100.00
2022-12-27T21:03:32.477Z,100.00
2022-12-27T21:06:04.256Z,100.00
2022-12-27T21:08:32.211Z,100.00
2022-12-27T21:11:04.055Z,100.00
2022-12-27T21:13:33.389Z,100.00
2022-12-27T21:15:59.972Z,100.00
2022-12-27T21:18:26.537Z,100.00
2022-12-27T21:20:53.051Z,100.00
2022-12-27T21:23:19.652Z,100.00
2022-12-27T21:25:46.173Z,100.00
2022-12-27T21:28:12.741Z,100.00
2022-12-27T21:30:39.290Z,100.00
2022-12-27T21:33:05.906Z,100.00
2022-12-27T21:35:32.464Z,100.00
2022-12-27T21:37:59.031Z,100.00
2022-12-27T21:40:25.547Z,100.00
2022-12-27T21:42:53.547Z,100.00
2022-12-27T21:45:20.157Z,100.00
2022-12-27T21:47:46.727Z,100.00
2022-12-27T21:50:13.347Z,100.00
2022-12-27T21:52:39.914Z,100.00
2022-12-27T21:55:06.579Z,100.00
2022-12-27T21:57:33.105Z,100.00
2022-12-27T21:59:59.775Z,100.00
2022-12-27T22:02:26.542Z,100.00
2022-12-27T22:04:53.304Z,100.00
2022-12-27T22:07:19.909Z,100.00
2022-12-27T22:09:46.453Z,100.00
2022-12-27T22:12:13.025Z,100.00
2022-12-27T22:14:39.769Z,100.00
2022-12-27T22:17:06.450Z,100.00
2022-12-27T22:19:33.074Z,100.00
2022-12-27T22:21:59.670Z,100.00
2022-12-27T22:24:26.236Z,100.00
2022-12-27T22:26:52.845Z,100.00
2022-12-27T22:29:19.599Z,100.00
2022-12-27T22:31:46.677Z,100.00
2022-12-27T22:34:13.305Z,100.00
2022-12-27T22:36:39.896Z,100.00
2022-12-27T22:39:06.535Z,100.00
2022-12-27T22:41:34.115Z,100.00
2022-12-27T22:44:05.334Z,100.00
2022-12-27T22:46:58.591Z,100.00
2022-12-27T22:49:19.154Z,100.00
2022-12-27T22:51:45.888Z,100.00
2022-12-27T22:54:12.379Z,100.00
2022-12-27T22:56:40.485Z,100.00
2022-12-27T22:59:07.656Z,100.00
2022-12-27T23:01:34.988Z,100.00
2022-12-27T23:04:02.624Z,100.00
2022-12-27T23:06:30.172Z,100.00
2022-12-27T23:08:56.735Z,100.00
2022-12-27T23:11:25.528Z,100.00
2022-12-27T23:13:56.615Z,100.00
2022-12-27T23:16:23.149Z,100.00
2022-12-27T23:18:49.922Z,100.00
2022-12-27T23:21:21.523Z,100.00
2022-12-27T23:23:51.414Z,100.00
2022-12-27T23:26:20.308Z,100.00
2022-12-27T23:28:47.221Z,100.00
2022-12-27T23:31:14.348Z,100.00
2022-12-27T23:33:41.734Z,100.00
2022-12-27T23:36:08.805Z,100.00
2022-12-27T23:38:35.367Z,100.00
2022-12-27T23:41:03.556Z,100.00
2022-12-27T23:43:51.547Z,100.00
2022-12-27T23:46:20.039Z,100.00
2022-12-27T23:48:46.800Z,100.00
2022-12-27T23:51:14.091Z,100.00
2022-12-27T23:53:41.122Z,100.00
2022-12-27T23:56:10.105Z,100.00
2022-12-27T23:58:36.606Z,100.00
